LFPM 151900Z AUTO 18005KT CAVOK 18/07 Q1013